createdAt,value
2017-11-04T00:00:28.216Z,954
2017-11-04T00:01:28.233Z,953.99
2017-11-04T00:02:28.250Z,954.01
2017-11-04T00:03:28.267Z,954.01
2017-11-04T00:04:28.286Z,954.07
2017-11-04T00:05:28.317Z,954.03
2017-11-04T00:06:28.318Z,954.03
2017-11-04T00:07:28.337Z,954.02
2017-11-04T00:08:28.353Z,953.96
2017-11-04T00:09:28.370Z,954
2017-11-04T00:10:28.388Z,954.04
2017-11-04T00:11:28.456Z,953.98
2017-11-04T00:12:28.428Z,954.02
2017-11-04T00:13:28.440Z,954.01
2017-11-04T00:14:28.458Z,954.02
2017-11-04T00:15:28.478Z,954.03
2017-11-04T00:16:28.492Z,954.01
2017-11-04T00:17:28.509Z,953.99
2017-11-04T00:18:28.526Z,954.01
2017-11-04T00:19:28.560Z,953.99
2017-11-04T00:20:28.558Z,953.96
2017-11-04T00:21:28.576Z,953.99
2017-11-04T00:22:28.601Z,953.95
2017-11-04T00:23:28.611Z,953.97
2017-11-04T00:24:28.628Z,953.92
2017-11-04T00:25:28.645Z,953.95
2017-11-04T00:26:28.662Z,953.95
2017-11-04T00:27:28.678Z,953.98
2017-11-04T00:28:28.696Z,953.93
2017-11-04T00:29:28.764Z,953.92
2017-11-04T00:30:28.730Z,953.9
2017-11-04T00:31:28.748Z,953.93
2017-11-04T00:32:28.764Z,953.95
2017-11-04T00:33:28.781Z,953.92
2017-11-04T00:34:28.799Z,953.92
2017-11-04T00:35:28.816Z,953.91
2017-11-04T00:36:28.838Z,953.87
2017-11-04T00:37:28.849Z,953.84
2017-11-04T00:38:28.867Z,953.87
2017-11-04T00:39:28.883Z,953.84
2017-11-04T00:40:28.902Z,953.83
2017-11-04T00:41:28.919Z,953.78
2017-11-04T00:42:28.941Z,953.77
2017-11-04T00:43:28.952Z,953.8
2017-11-04T00:44:29.020Z,953.8
2017-11-04T00:45:28.984Z,953.8
2017-11-04T00:46:29.001Z,953.79
2017-11-04T00:47:29.021Z,953.74
2017-11-04T00:48:29.036Z,953.76
2017-11-04T00:49:29.053Z,953.71
2017-11-04T00:50:29.421Z,953.74
2017-11-04T00:51:29.088Z,953.75
2017-11-04T00:52:29.103Z,953.77
2017-11-04T00:53:29.120Z,953.75
2017-11-04T00:54:29.137Z,953.76
2017-11-04T00:55:29.156Z,953.75
2017-11-04T00:56:29.189Z,953.77
2017-11-04T00:57:29.189Z,953.75
2017-11-04T00:58:29.209Z,953.74
2017-11-04T00:59:29.223Z,953.7
2017-11-04T01:00:29.242Z,953.72
2017-11-04T01:01:29.257Z,953.71
2017-11-04T01:02:29.276Z,953.67
2017-11-04T01:03:29.293Z,953.68
2017-11-04T01:04:29.309Z,953.64
2017-11-04T01:05:29.327Z,953.68
2017-11-04T01:06:29.342Z,953.62
2017-11-04T01:07:29.359Z,953.64
2017-11-04T01:08:29.382Z,953.57
2017-11-04T01:09:29.394Z,953.6
2017-11-04T01:10:29.416Z,953.61
2017-11-04T01:11:29.427Z,953.57
2017-11-04T01:12:29.446Z,953.56
2017-11-04T01:13:29.461Z,953.54
2017-11-04T01:14:29.483Z,953.55
2017-11-04T01:15:29.495Z,953.53
2017-11-04T01:16:29.517Z,953.56
2017-11-04T01:17:29.528Z,953.62
2017-11-04T01:18:29.594Z,953.61
2017-11-04T01:19:29.563Z,953.6
2017-11-04T01:20:29.578Z,953.62
2017-11-04T01:21:29.596Z,953.61
2017-11-04T01:22:29.617Z,953.63
2017-11-04T01:23:29.630Z,953.58
2017-11-04T01:24:29.652Z,953.63
2017-11-04T01:25:29.662Z,953.61
2017-11-04T01:26:29.679Z,953.6
2017-11-04T01:27:29.701Z,953.59
2017-11-04T01:28:29.714Z,953.61
2017-11-04T01:29:29.729Z,953.62
2017-11-04T01:30:29.746Z,953.62
2017-11-04T01:31:29.763Z,953.58
2017-11-04T01:32:29.787Z,953.59
2017-11-04T01:33:29.847Z,953.61
2017-11-04T01:34:29.812Z,953.59
2017-11-04T01:35:29.832Z,953.61
2017-11-04T01:36:29.846Z,953.62
2017-11-04T01:37:29.864Z,953.6
2017-11-04T01:38:29.881Z,953.58
2017-11-04T01:39:29.899Z,953.61
2017-11-04T01:40:29.914Z,953.61
2017-11-04T01:41:29.931Z,953.59
2017-11-04T01:42:29.947Z,953.59
2017-11-04T01:43:29.965Z,953.59
2017-11-04T01:44:29.982Z,953.61
2017-11-04T01:45:30.002Z,953.58
2017-11-04T01:46:30.015Z,953.56
2017-11-04T01:47:30.031Z,953.53
2017-11-04T01:48:30.048Z,953.55
2017-11-04T01:49:30.066Z,953.53
2017-11-04T01:50:30.082Z,953.53
2017-11-04T01:51:30.097Z,953.55
2017-11-04T01:52:30.115Z,953.54
2017-11-04T01:53:30.132Z,953.56
2017-11-04T01:54:30.149Z,953.49
2017-11-04T01:55:30.181Z,953.53
2017-11-04T01:56:30.181Z,953.54
2017-11-04T01:57:30.200Z,953.53
2017-11-04T01:58:30.215Z,953.53
2017-11-04T01:59:30.238Z,953.54
2017-11-04T02:00:30.250Z,953.53
2017-11-04T02:01:30.265Z,953.54
2017-11-04T02:02:30.284Z,953.56
2017-11-04T02:03:30.299Z,953.54
2017-11-04T02:04:30.320Z,953.49
2017-11-04T02:05:30.333Z,953.53
2017-11-04T02:06:30.349Z,953.52
2017-11-04T02:07:30.417Z,953.53
2017-11-04T02:08:30.382Z,953.57
2017-11-04T02:09:30.400Z,953.56
2017-11-04T02:10:30.416Z,953.57
2017-11-04T02:11:30.432Z,953.56
2017-11-04T02:12:30.451Z,953.52
2017-11-04T02:13:30.465Z,953.53
2017-11-04T02:14:30.484Z,953.52
2017-11-04T02:15:30.499Z,953.53
2017-11-04T02:16:30.516Z,953.51
2017-11-04T02:17:30.534Z,953.51
2017-11-04T02:18:30.549Z,953.55
2017-11-04T02:19:30.566Z,953.46
2017-11-04T02:20:30.582Z,953.48
2017-11-04T02:21:30.598Z,953.49
2017-11-04T02:22:30.615Z,953.46
2017-11-04T02:23:30.632Z,953.48
2017-11-04T02:24:30.647Z,953.48
2017-11-04T02:25:30.714Z,953.45
2017-11-04T02:26:30.682Z,953.51
2017-11-04T02:27:30.699Z,953.46
2017-11-04T02:28:30.713Z,953.44
2017-11-04T02:29:30.731Z,953.44
2017-11-04T02:30:30.748Z,953.44
2017-11-04T02:31:30.764Z,953.49
2017-11-04T02:32:30.780Z,953.47
2017-11-04T02:33:30.803Z,953.48
2017-11-04T02:34:30.815Z,953.49
2017-11-04T02:35:30.830Z,953.49
2017-11-04T02:36:30.854Z,953.48
2017-11-04T02:37:30.863Z,953.46
2017-11-04T02:38:30.879Z,953.44
2017-11-04T02:39:30.896Z,953.39
2017-11-04T02:40:30.912Z,953.42
2017-11-04T02:41:30.980Z,953.39
2017-11-04T02:42:30.945Z,953.4
2017-11-04T02:43:30.969Z,953.41
2017-11-04T02:44:30.978Z,953.4
2017-11-04T02:45:30.994Z,953.37
2017-11-04T02:46:31.011Z,953.4
2017-11-04T02:47:31.028Z,953.38
2017-11-04T02:48:31.044Z,953.36
2017-11-04T02:49:31.061Z,953.4
2017-11-04T02:50:31.078Z,953.42
2017-11-04T02:51:31.092Z,953.39
2017-11-04T02:52:31.110Z,953.38
2017-11-04T02:53:31.125Z,953.35
2017-11-04T02:54:31.144Z,953.35
2017-11-04T02:55:31.157Z,953.34
2017-11-04T02:56:31.225Z,953.38
2017-11-04T02:57:31.190Z,953.39
2017-11-04T02:58:31.210Z,953.44
2017-11-04T02:59:31.224Z,953.42
2017-11-04T03:00:31.239Z,953.41
2017-11-04T03:01:31.255Z,953.45
2017-11-04T03:02:31.274Z,953.43
2017-11-04T03:03:31.290Z,953.41
2017-11-04T03:04:31.305Z,953.44
2017-11-04T03:05:31.322Z,953.47
2017-11-04T03:06:31.338Z,953.46
2017-11-04T03:07:31.355Z,953.49
2017-11-04T03:08:31.370Z,953.51
2017-11-04T03:09:31.387Z,953.51
2017-11-04T03:10:31.403Z,953.55
2017-11-04T03:11:31.468Z,953.53
2017-11-04T03:12:31.436Z,953.5
2017-11-04T03:13:31.455Z,953.48
2017-11-04T03:14:31.469Z,953.51
2017-11-04T03:15:31.486Z,953.55
2017-11-04T03:16:31.519Z,953.55
2017-11-04T03:17:31.516Z,953.59
2017-11-04T03:18:31.531Z,953.53
2017-11-04T03:19:31.547Z,953.57
2017-11-04T03:20:31.564Z,953.6
2017-11-04T03:21:31.583Z,953.55
2017-11-04T03:22:31.594Z,953.53
2017-11-04T03:23:31.608Z,953.53
2017-11-04T03:24:31.625Z,953.48
2017-11-04T03:25:31.640Z,953.53
2017-11-04T03:26:31.656Z,953.51
2017-11-04T03:27:31.671Z,953.5
2017-11-04T03:28:31.737Z,953.49
2017-11-04T03:29:31.700Z,953.55
2017-11-04T03:30:31.719Z,953.51
2017-11-04T03:31:31.733Z,953.53
2017-11-04T03:32:31.748Z,953.55
2017-11-04T03:33:31.762Z,953.52
2017-11-04T03:34:31.777Z,953.56
2017-11-04T03:35:31.792Z,953.52
2017-11-04T03:36:31.810Z,953.55
2017-11-04T03:37:31.825Z,953.55
2017-11-04T03:38:31.839Z,953.5
2017-11-04T03:39:31.854Z,953.57
2017-11-04T03:40:31.868Z,953.51
2017-11-04T03:41:31.885Z,953.5
2017-11-04T03:42:31.901Z,953.5
2017-11-04T03:43:31.915Z,953.5
2017-11-04T03:44:31.928Z,953.51
2017-11-04T03:45:31.948Z,953.51
2017-11-04T03:46:32.010Z,953.44
2017-11-04T03:47:31.976Z,953.44
2017-11-04T03:48:31.991Z,953.41
2017-11-04T03:49:32.006Z,953.38
2017-11-04T03:50:32.021Z,953.36
2017-11-04T03:51:32.036Z,953.39
2017-11-04T03:52:32.052Z,953.38
2017-11-04T03:53:32.066Z,953.37
2017-11-04T03:54:32.083Z,953.41
2017-11-04T03:55:32.096Z,953.42
2017-11-04T03:56:32.113Z,953.44
2017-11-04T03:57:32.130Z,953.43
2017-11-04T03:58:32.150Z,953.45
2017-11-04T03:59:32.166Z,953.45
2017-11-04T04:00:32.175Z,953.42
2017-11-04T04:01:32.190Z,953.43
2017-11-04T04:02:32.204Z,953.43
2017-11-04T04:03:32.219Z,953.44
2017-11-04T04:04:32.236Z,953.39
2017-11-04T04:05:32.250Z,953.41
2017-11-04T04:06:32.265Z,953.45
2017-11-04T04:07:32.284Z,953.43
2017-11-04T04:08:32.297Z,953.43
2017-11-04T04:09:32.312Z,953.43
2017-11-04T04:10:32.328Z,953.44
2017-11-04T04:11:32.343Z,953.46
2017-11-04T04:12:32.410Z,953.47
2017-11-04T04:13:32.374Z,953.47
2017-11-04T04:14:32.389Z,953.51
2017-11-04T04:15:32.404Z,953.45
2017-11-04T04:16:32.421Z,953.42
2017-11-04T04:17:32.435Z,953.41
2017-11-04T04:18:32.451Z,953.43
2017-11-04T04:19:32.468Z,953.42
2017-11-04T04:20:32.482Z,953.4
2017-11-04T04:21:32.498Z,953.41
2017-11-04T04:22:32.514Z,953.41
2017-11-04T04:23:32.531Z,953.43
2017-11-04T04:24:32.545Z,953.42
2017-11-04T04:25:32.565Z,953.42
2017-11-04T04:26:32.576Z,953.44
2017-11-04T04:27:32.594Z,953.42
2017-11-04T04:28:32.609Z,953.41
2017-11-04T04:29:32.637Z,953.43
2017-11-04T04:30:32.640Z,953.38
2017-11-04T04:31:32.706Z,953.39
2017-11-04T04:32:32.672Z,953.41
2017-11-04T04:33:32.686Z,953.38
2017-11-04T04:34:32.703Z,953.4
2017-11-04T04:35:32.717Z,953.41
2017-11-04T04:36:32.734Z,953.38
2017-11-04T04:37:32.749Z,953.38
2017-11-04T04:38:32.766Z,953.41
2017-11-04T04:39:32.781Z,953.4
2017-11-04T04:40:32.798Z,953.43
2017-11-04T04:41:32.814Z,953.42
2017-11-04T04:42:32.829Z,953.46
2017-11-04T04:43:32.843Z,953.45
2017-11-04T04:44:32.861Z,953.49
2017-11-04T04:45:32.877Z,953.47
2017-11-04T04:46:32.942Z,953.44
2017-11-04T04:47:33.258Z,953.5
2017-11-04T04:48:32.924Z,953.47
2017-11-04T04:49:32.943Z,953.49
2017-11-04T04:50:32.955Z,953.5
2017-11-04T04:51:32.988Z,953.54
2017-11-04T04:52:32.986Z,953.56
2017-11-04T04:53:33.003Z,953.54
2017-11-04T04:54:33.020Z,953.56
2017-11-04T04:55:33.038Z,953.58
2017-11-04T04:56:33.051Z,953.59
2017-11-04T04:57:33.066Z,953.53
2017-11-04T04:58:33.083Z,953.56
2017-11-04T04:59:33.098Z,953.54
2017-11-04T05:00:33.113Z,953.59
2017-11-04T05:01:33.130Z,953.57
2017-11-04T05:02:33.145Z,953.6
2017-11-04T05:03:33.159Z,953.59
2017-11-04T05:04:33.176Z,953.59
2017-11-04T05:05:33.195Z,953.56
2017-11-04T05:06:33.206Z,953.56
2017-11-04T05:07:33.223Z,953.52
2017-11-04T05:08:33.242Z,953.49
2017-11-04T05:09:33.254Z,953.54
2017-11-04T05:10:33.274Z,953.53
2017-11-04T05:11:33.286Z,953.54
2017-11-04T05:12:33.301Z,953.58
2017-11-04T05:13:33.342Z,953.55
2017-11-04T05:14:33.334Z,953.53
2017-11-04T05:15:33.347Z,953.53
2017-11-04T05:16:33.365Z,953.49
2017-11-04T05:17:33.385Z,953.51
2017-11-04T05:18:33.397Z,953.51
2017-11-04T05:19:33.412Z,953.53
2017-11-04T05:20:33.578Z,953.54
2017-11-04T05:21:33.444Z,953.5
2017-11-04T05:22:33.466Z,953.52
2017-11-04T05:23:33.475Z,953.47
2017-11-04T05:24:33.493Z,953.47
2017-11-04T05:25:33.509Z,953.43
2017-11-04T05:26:33.523Z,953.46
2017-11-04T05:27:33.540Z,953.48
2017-11-04T05:28:33.555Z,953.44
2017-11-04T05:29:33.572Z,953.46
2017-11-04T05:30:33.587Z,953.47
2017-11-04T05:31:33.604Z,953.55
2017-11-04T05:32:33.619Z,953.59
2017-11-04T05:33:33.636Z,953.59
2017-11-04T05:34:33.652Z,953.58
2017-11-04T05:35:33.717Z,953.55
2017-11-04T05:36:33.682Z,953.58
2017-11-04T05:37:33.699Z,953.6
2017-11-04T05:38:33.715Z,953.58
2017-11-04T05:39:33.733Z,953.59
2017-11-04T05:40:33.749Z,953.6
2017-11-04T05:41:33.764Z,953.62
2017-11-04T05:42:33.781Z,953.58
2017-11-04T05:43:33.797Z,953.63
2017-11-04T05:44:33.817Z,953.59
2017-11-04T05:45:33.828Z,953.62
2017-11-04T05:46:33.846Z,953.66
2017-11-04T05:47:33.861Z,953.63
2017-11-04T05:48:33.876Z,953.62
2017-11-04T05:49:33.893Z,953.66
2017-11-04T05:50:33.975Z,953.68
2017-11-04T05:51:33.925Z,953.69
2017-11-04T05:52:33.940Z,953.69
2017-11-04T05:53:33.958Z,953.73
2017-11-04T05:54:33.973Z,953.78
2017-11-04T05:55:33.990Z,953.75
2017-11-04T05:56:34.006Z,953.78
2017-11-04T05:57:34.042Z,953.7
2017-11-04T05:58:34.039Z,953.74
2017-11-04T05:59:34.054Z,953.71
2017-11-04T06:00:34.071Z,953.66
2017-11-04T06:01:34.089Z,953.72
2017-11-04T06:02:34.105Z,953.67
2017-11-04T06:03:34.120Z,953.71
2017-11-04T06:04:34.137Z,953.74
2017-11-04T06:05:34.204Z,953.72
2017-11-04T06:06:34.172Z,953.71
2017-11-04T06:07:34.187Z,953.67
2017-11-04T06:08:34.203Z,953.71
2017-11-04T06:09:34.219Z,953.7
2017-11-04T06:10:34.240Z,953.69
2017-11-04T06:11:34.256Z,953.71
2017-11-04T06:12:34.271Z,953.74
2017-11-04T06:13:34.287Z,953.75
2017-11-04T06:14:34.301Z,953.71
2017-11-04T06:15:34.319Z,953.75
2017-11-04T06:16:34.335Z,953.73
2017-11-04T06:17:34.359Z,953.76
2017-11-04T06:18:34.367Z,953.73
2017-11-04T06:19:34.391Z,953.75
2017-11-04T06:20:34.401Z,953.74
2017-11-04T06:21:34.421Z,953.73
2017-11-04T06:22:34.433Z,953.69
2017-11-04T06:23:34.449Z,953.74
2017-11-04T06:24:34.470Z,953.73
2017-11-04T06:25:34.514Z,953.74
2017-11-04T06:26:34.504Z,953.78
2017-11-04T06:27:34.515Z,953.8
2017-11-04T06:28:34.532Z,953.76
2017-11-04T06:29:34.548Z,953.83
2017-11-04T06:30:34.565Z,953.8
2017-11-04T06:31:34.581Z,953.79
2017-11-04T06:32:34.598Z,953.82
2017-11-04T06:33:34.614Z,953.81
2017-11-04T06:34:34.629Z,953.84
2017-11-04T06:35:34.647Z,953.87
2017-11-04T06:36:34.663Z,953.84
2017-11-04T06:37:34.681Z,953.87
2017-11-04T06:38:34.697Z,953.87
2017-11-04T06:39:34.735Z,953.87
2017-11-04T06:40:34.733Z,953.88
2017-11-04T06:41:34.747Z,953.89
2017-11-04T06:42:34.761Z,953.89
2017-11-04T06:43:34.778Z,953.83
2017-11-04T06:44:34.795Z,953.86
2017-11-04T06:45:34.812Z,953.86
2017-11-04T06:46:34.829Z,953.87
2017-11-04T06:47:34.844Z,953.83
2017-11-04T06:48:34.861Z,953.81
2017-11-04T06:49:34.878Z,953.82
2017-11-04T06:50:34.893Z,953.82
2017-11-04T06:51:34.909Z,953.84
2017-11-04T06:52:34.928Z,953.83
2017-11-04T06:53:34.946Z,953.89
2017-11-04T06:54:34.962Z,953.87
2017-11-04T06:55:34.978Z,953.84
2017-11-04T06:56:34.994Z,953.81
2017-11-04T06:57:35.011Z,953.85
2017-11-04T06:58:35.028Z,953.86
2017-11-04T06:59:35.069Z,953.85
2017-11-04T07:00:35.062Z,953.89
2017-11-04T07:01:35.078Z,953.85
2017-11-04T07:02:35.094Z,953.86
2017-11-04T07:03:35.112Z,953.87
2017-11-04T07:04:35.127Z,953.89
2017-11-04T07:05:35.145Z,953.95
2017-11-04T07:06:35.161Z,953.9
2017-11-04T07:07:35.177Z,953.92
2017-11-04T07:08:35.200Z,953.93
2017-11-04T07:09:35.211Z,953.95
2017-11-04T07:10:35.278Z,953.98
2017-11-04T07:11:35.245Z,953.96
2017-11-04T07:12:35.265Z,953.9
2017-11-04T07:13:35.278Z,953.91
2017-11-04T07:14:35.294Z,953.94
2017-11-04T07:15:35.312Z,953.92
2017-11-04T07:16:35.327Z,953.94
2017-11-04T07:17:35.345Z,953.91
2017-11-04T07:18:35.379Z,953.97
2017-11-04T07:19:35.381Z,953.97
2017-11-04T07:20:35.396Z,954.01
2017-11-04T07:21:35.412Z,954.01
2017-11-04T07:22:35.430Z,953.99
2017-11-04T07:23:35.447Z,954
2017-11-04T07:24:35.462Z,954
2017-11-04T07:25:35.481Z,954.01
2017-11-04T07:26:35.497Z,954.03
2017-11-04T07:27:35.515Z,954.03
2017-11-04T07:28:35.533Z,954.01
2017-11-04T07:29:35.550Z,954.01
2017-11-04T07:30:35.567Z,954
2017-11-04T07:31:35.587Z,954.04
2017-11-04T07:32:35.600Z,954.07
2017-11-04T07:33:35.620Z,954.03
2017-11-04T07:34:35.634Z,954.02
2017-11-04T07:35:35.654Z,954.06
2017-11-04T07:36:35.671Z,954.08
2017-11-04T07:37:35.687Z,954.06
2017-11-04T07:38:35.707Z,954.02
2017-11-04T07:39:35.723Z,954.09
2017-11-04T07:40:35.746Z,954.07
2017-11-04T07:41:35.760Z,954.08
2017-11-04T07:42:35.775Z,954.09
2017-11-04T07:43:35.796Z,954.09
2017-11-04T07:44:35.812Z,954.08
2017-11-04T07:45:35.828Z,954.07
2017-11-04T07:46:35.897Z,954.11
2017-11-04T07:47:35.864Z,954.07
2017-11-04T07:48:35.883Z,954.05
2017-11-04T07:49:35.901Z,954.09
2017-11-04T07:50:35.918Z,954.07
2017-11-04T07:51:35.938Z,954.11
2017-11-04T07:52:35.956Z,954.05
2017-11-04T07:53:35.973Z,954.07
2017-11-04T07:54:35.993Z,954.07
2017-11-04T07:55:36.018Z,954.05
2017-11-04T07:56:36.029Z,954.05
2017-11-04T07:57:36.048Z,954.08
2017-11-04T07:58:36.065Z,954.06
2017-11-04T07:59:36.086Z,954.07
2017-11-04T08:00:36.102Z,954.09
2017-11-04T08:01:36.122Z,954.08
2017-11-04T08:02:36.141Z,954.08
2017-11-04T08:03:36.161Z,954.03
2017-11-04T08:04:36.181Z,954.06
2017-11-04T08:05:36.199Z,954.04
2017-11-04T08:06:36.218Z,954
2017-11-04T08:07:36.237Z,954.01
2017-11-04T08:08:36.256Z,954.05
2017-11-04T08:09:36.276Z,953.98
2017-11-04T08:10:36.303Z,953.99
2017-11-04T08:11:36.314Z,954.06
2017-11-04T08:12:36.333Z,954.05
2017-11-04T08:13:36.353Z,954.11
2017-11-04T08:14:36.371Z,954.06
2017-11-04T08:15:36.391Z,954.07
2017-11-04T08:16:36.412Z,954.09
2017-11-04T08:17:36.431Z,954.08
2017-11-04T08:18:36.450Z,954.07
2017-11-04T08:19:36.469Z,954.11
2017-11-04T08:20:36.501Z,954.09
2017-11-04T08:21:36.509Z,954.11
2017-11-04T08:22:36.529Z,954.1
2017-11-04T08:23:36.555Z,954.09
2017-11-04T08:24:36.569Z,954.12
2017-11-04T08:25:36.588Z,954.16
2017-11-04T08:26:36.616Z,954.12
2017-11-04T08:27:36.632Z,954.12
2017-11-04T08:28:36.648Z,954.16
2017-11-04T08:29:36.668Z,954.18
2017-11-04T08:30:36.687Z,954.15
2017-11-04T08:31:36.708Z,954.16
2017-11-04T08:32:36.729Z,954.14
2017-11-04T08:33:36.749Z,954.11
2017-11-04T08:34:36.768Z,954.15
2017-11-04T08:35:36.790Z,954.11
2017-11-04T08:36:36.808Z,954.13
2017-11-04T08:37:36.828Z,954.15
2017-11-04T08:38:36.849Z,954.19
2017-11-04T08:39:36.870Z,954.16
2017-11-04T08:40:36.892Z,954.16
2017-11-04T08:41:36.910Z,954.13
2017-11-04T08:42:36.931Z,954.13
2017-11-04T08:43:36.960Z,954.14
2017-11-04T08:44:36.972Z,954.13
2017-11-04T08:45:36.992Z,954.15
2017-11-04T08:46:37.011Z,954.18
2017-11-04T08:47:37.032Z,954.18
2017-11-04T08:48:37.052Z,954.16
2017-11-04T08:49:37.073Z,954.16
2017-11-04T08:50:37.094Z,954.17
2017-11-04T08:51:37.112Z,954.16
2017-11-04T08:52:37.133Z,954.21
2017-11-04T08:53:37.154Z,954.19
2017-11-04T08:54:37.175Z,954.24
2017-11-04T08:55:37.194Z,954.19
2017-11-04T08:56:37.215Z,954.17
2017-11-04T08:57:37.236Z,954.19
2017-11-04T08:58:37.255Z,954.18
2017-11-04T08:59:37.276Z,954.16
2017-11-04T09:00:37.302Z,954.16
2017-11-04T09:01:37.319Z,954.12
2017-11-04T09:02:37.337Z,954.15
2017-11-04T09:03:37.374Z,954.15
2017-11-04T09:04:37.378Z,954.13
2017-11-04T09:05:37.403Z,954.16
2017-11-04T09:06:37.420Z,954.17
2017-11-04T09:07:37.494Z,954.18
2017-11-04T09:08:37.462Z,954.16
2017-11-04T09:09:37.481Z,954.21
2017-11-04T09:10:37.502Z,954.16
2017-11-04T09:11:37.523Z,954.13
2017-11-04T09:12:37.544Z,954.1
2017-11-04T09:13:37.565Z,954.16
2017-11-04T09:14:37.586Z,954.15
2017-11-04T09:15:37.612Z,954.15
2017-11-04T09:16:37.626Z,954.13
2017-11-04T09:17:37.646Z,954.13
2017-11-04T09:18:37.672Z,954.1
2017-11-04T09:19:37.690Z,954.14
2017-11-04T09:20:37.710Z,954.14
2017-11-04T09:21:37.732Z,954.11
2017-11-04T09:22:37.754Z,954.1
2017-11-04T09:23:37.774Z,954.1
2017-11-04T09:24:37.803Z,954.09
2017-11-04T09:25:37.815Z,954.1
2017-11-04T09:26:37.895Z,954.05
2017-11-04T09:27:37.859Z,954.03
2017-11-04T09:28:37.879Z,954.02
2017-11-04T09:29:37.901Z,954.05
2017-11-04T09:30:37.921Z,954.06
2017-11-04T09:31:37.943Z,954.02
2017-11-04T09:32:37.964Z,954.01
2017-11-04T09:33:37.984Z,954
2017-11-04T09:34:38.006Z,954.01
2017-11-04T09:35:38.028Z,953.99
2017-11-04T09:36:38.049Z,954.02
2017-11-04T09:37:38.070Z,954
2017-11-04T09:38:38.090Z,954
2017-11-04T09:39:38.112Z,953.97
2017-11-04T09:40:38.134Z,953.98
2017-11-04T09:41:38.164Z,954
2017-11-04T09:42:38.175Z,954.02
2017-11-04T09:43:38.199Z,953.99
2017-11-04T09:44:38.220Z,953.99
2017-11-04T09:45:38.243Z,953.96
2017-11-04T09:46:38.264Z,953.98
2017-11-04T09:47:38.285Z,954.02
2017-11-04T09:48:38.308Z,954
2017-11-04T09:49:38.328Z,954
2017-11-04T09:50:38.353Z,953.99
2017-11-04T09:51:38.374Z,953.96
2017-11-04T09:52:38.393Z,953.94
2017-11-04T09:53:38.415Z,953.95
2017-11-04T09:54:38.443Z,953.99
2017-11-04T09:55:38.464Z,954
2017-11-04T09:56:38.482Z,954.01
2017-11-04T09:57:38.506Z,953.99
2017-11-04T09:58:38.527Z,954.03
2017-11-04T09:59:38.555Z,954.03
2017-11-04T10:00:38.571Z,954.01
2017-11-04T10:01:38.593Z,954.02
2017-11-04T10:02:38.616Z,954.04
2017-11-04T10:03:38.639Z,954.02
2017-11-04T10:04:38.667Z,954.03
2017-11-04T10:05:38.685Z,953.99
2017-11-04T10:06:38.758Z,954.02
2017-11-04T10:07:38.732Z,954.03
2017-11-04T10:08:38.754Z,953.99
2017-11-04T10:09:38.776Z,954.01
2017-11-04T10:10:38.801Z,954.01
2017-11-04T10:11:38.823Z,953.99
2017-11-04T10:12:38.844Z,953.97
2017-11-04T10:13:38.869Z,953.95
2017-11-04T10:14:38.891Z,953.95
2017-11-04T10:15:38.914Z,953.96
2017-11-04T10:16:38.938Z,953.97
2017-11-04T10:17:38.961Z,953.95
2017-11-04T10:18:38.989Z,953.94
2017-11-04T10:19:39.013Z,953.93
2017-11-04T10:20:39.032Z,953.91
2017-11-04T10:21:39.056Z,953.88
2017-11-04T10:22:39.079Z,953.89
2017-11-04T10:23:39.102Z,953.85
2017-11-04T10:24:39.127Z,953.86
2017-11-04T10:25:39.152Z,953.87
2017-11-04T10:26:39.175Z,953.84
2017-11-04T10:27:39.199Z,953.84
2017-11-04T10:28:39.223Z,953.82
2017-11-04T10:29:39.247Z,953.85
2017-11-04T10:30:39.271Z,953.81
2017-11-04T10:31:39.295Z,953.79
2017-11-04T10:32:39.321Z,953.79
2017-11-04T10:33:39.344Z,953.81
2017-11-04T10:34:39.372Z,953.84
2017-11-04T10:35:39.396Z,953.82
2017-11-04T10:36:39.422Z,953.81
2017-11-04T10:37:39.445Z,953.86
2017-11-04T10:38:39.470Z,953.9
2017-11-04T10:39:39.501Z,953.8
2017-11-04T10:40:39.573Z,953.86
2017-11-04T10:41:39.549Z,953.84
2017-11-04T10:42:39.575Z,953.84
2017-11-04T10:43:39.607Z,953.78
2017-11-04T10:44:39.628Z,953.78
2017-11-04T10:45:39.654Z,953.77
2017-11-04T10:46:39.680Z,953.76
2017-11-04T10:47:39.706Z,953.71
2017-11-04T10:48:39.733Z,953.73
2017-11-04T10:49:39.759Z,953.72
2017-11-04T10:50:39.789Z,953.71
2017-11-04T10:51:39.825Z,953.69
2017-11-04T10:52:39.839Z,953.7
2017-11-04T10:53:39.870Z,953.63
2017-11-04T10:54:39.892Z,953.65
2017-11-04T10:55:39.919Z,953.7
2017-11-04T10:56:39.995Z,953.64
2017-11-04T10:57:39.971Z,953.67
2017-11-04T10:58:39.997Z,953.69
2017-11-04T10:59:40.044Z,953.71
2017-11-04T11:00:40.049Z,953.75
2017-11-04T11:01:40.075Z,953.74
2017-11-04T11:02:40.102Z,953.74
2017-11-04T11:03:40.129Z,953.7
2017-11-04T11:04:40.156Z,953.67
2017-11-04T11:05:40.182Z,953.63
2017-11-04T11:06:40.209Z,953.6
2017-11-04T11:07:40.236Z,953.58
2017-11-04T11:08:40.263Z,953.63
2017-11-04T11:09:40.291Z,953.57
2017-11-04T11:10:40.318Z,953.57
2017-11-04T11:11:40.345Z,953.56
2017-11-04T11:12:40.374Z,953.59
2017-11-04T11:13:40.401Z,953.54
2017-11-04T11:14:40.430Z,953.5
2017-11-04T11:15:40.457Z,953.5
2017-11-04T11:16:40.483Z,953.5
2017-11-04T11:17:40.512Z,953.47
2017-11-04T11:18:40.539Z,953.49
2017-11-04T11:19:40.566Z,953.49
2017-11-04T11:20:40.595Z,953.5
2017-11-04T11:21:40.626Z,953.49
2017-11-04T11:22:40.649Z,953.5
2017-11-04T11:23:40.678Z,953.55
2017-11-04T11:24:40.703Z,953.5
2017-11-04T11:25:40.732Z,953.46
2017-11-04T11:26:40.759Z,953.47
2017-11-04T11:27:40.837Z,953.44
2017-11-04T11:28:40.814Z,953.45
2017-11-04T11:29:40.847Z,953.44
2017-11-04T11:30:40.869Z,953.39
2017-11-04T11:31:40.921Z,953.39
2017-11-04T11:32:40.925Z,953.48
2017-11-04T11:33:40.953Z,953.42
2017-11-04T11:34:40.981Z,953.38
2017-11-04T11:35:41.008Z,953.39
2017-11-04T11:36:41.037Z,953.36
2017-11-04T11:37:41.064Z,953.33
2017-11-04T11:38:41.093Z,953.37
2017-11-04T11:39:41.138Z,953.37
2017-11-04T11:40:41.149Z,953.35
2017-11-04T11:41:41.176Z,953.36
2017-11-04T11:42:41.205Z,953.38
2017-11-04T11:43:41.230Z,953.36
2017-11-04T11:44:41.310Z,953.39
2017-11-04T11:45:41.288Z,953.37
2017-11-04T11:46:41.315Z,953.38
2017-11-04T11:47:41.357Z,953.36
2017-11-04T11:48:41.370Z,953.4
2017-11-04T11:49:41.398Z,953.36
2017-11-04T11:50:41.426Z,953.4
2017-11-04T11:51:41.454Z,953.35
2017-11-04T11:52:41.482Z,953.39
2017-11-04T11:53:41.518Z,953.33
2017-11-04T11:54:41.538Z,953.31
2017-11-04T11:55:41.575Z,953.34
2017-11-04T11:56:41.592Z,953.32
2017-11-04T11:57:41.620Z,953.33
2017-11-04T11:58:41.649Z,953.3
2017-11-04T11:59:41.678Z,953.33
2017-11-04T12:00:41.707Z,953.27
2017-11-04T12:01:41.732Z,953.33
2017-11-04T12:02:41.761Z,953.44
2017-11-04T12:03:41.795Z,953.35
2017-11-04T12:04:41.819Z,953.35
2017-11-04T12:05:41.848Z,953.57
2017-11-04T12:06:41.876Z,953.59
2017-11-04T12:07:41.905Z,953.57
2017-11-04T12:08:41.934Z,953.37
2017-11-04T12:09:41.963Z,953.51
2017-11-04T12:10:42.094Z,953.56
2017-11-04T12:11:42.024Z,953.63
2017-11-04T12:12:42.053Z,953.65
2017-11-04T12:13:42.094Z,953.59
2017-11-04T12:14:42.114Z,953.64
2017-11-04T12:15:42.146Z,953.64
2017-11-04T12:16:42.175Z,953.71
2017-11-04T12:17:42.210Z,953.62
2017-11-04T12:18:42.289Z,953.32
2017-11-04T12:19:42.270Z,953.32
2017-11-04T12:20:42.303Z,953.33
2017-11-04T12:21:42.367Z,953.38
2017-11-04T12:22:42.394Z,953.47
2017-11-04T12:23:42.414Z,953.47
2017-11-04T12:24:42.446Z,953.58
2017-11-04T12:25:42.478Z,953.47
2017-11-04T12:26:42.494Z,953.63
2017-11-04T12:27:42.524Z,953.7
2017-11-04T12:28:42.556Z,953.75
2017-11-04T12:29:42.588Z,953.64
2017-11-04T12:30:42.620Z,953.71
2017-11-04T12:31:42.652Z,953.68